Time;durP1;ratioP1;P1;durP2;ratioP2;P2;SDS_P1;SDS_P2;PMS_P1;PMS_P2;Temp;Humidity;BMP_temperature;BMP_pressure;BME280_temperature;BME280_humidity;BME280_pressure;Samples;Min_cycle;Max_cycle;Signal;HPM_P1;HPM_P2
2023/01/24 00:00:46;;;;;;;12.95;7.35;;;0.40;99.90;;;;;;5066421;28;20501;-77
2023/01/24 00:03:13;;;;;;;14.85;7.07;;;0.40;99.90;;;;;;5048906;28;20036;-77
2023/01/24 00:05:40;;;;;;;17.48;7.95;;;0.50;99.90;;;;;;5030380;28;20037;-74
2023/01/24 00:08:05;;;;;;;14.07;7.38;;;0.50;99.90;;;;;;5030078;28;20095;-76
2023/01/24 00:10:32;;;;;;;14.25;7.50;;;0.50;99.90;;;;;;5061514;28;20416;-77
2023/01/24 00:12:58;;;;;;;13.20;6.63;;;0.40;99.90;;;;;;5063665;28;20116;-77
2023/01/24 00:15:24;;;;;;;12.77;6.70;;;0.50;99.90;;;;;;5045256;28;20104;-77
2023/01/24 00:17:50;;;;;;;14.73;6.68;;;0.50;99.90;;;;;;5063818;28;20033;-77
2023/01/24 00:20:16;;;;;;;13.63;7.28;;;0.50;99.90;;;;;;5053374;28;20032;-77
2023/01/24 00:22:41;;;;;;;13.13;6.75;;;0.50;99.90;;;;;;5037156;28;20496;-77
2023/01/24 00:25:07;;;;;;;13.48;7.35;;;0.50;99.90;;;;;;5068711;28;20028;-78
2023/01/24 00:27:34;;;;;;;13.85;7.32;;;0.50;99.90;;;;;;5056194;28;20037;-77
2023/01/24 00:30:01;;;;;;;12.40;6.65;;;0.50;99.90;;;;;;5031951;28;20044;-77
2023/01/24 00:32:27;;;;;;;14.73;7.20;;;0.50;99.90;;;;;;5051495;28;20715;-76
2023/01/24 00:34:53;;;;;;;12.48;7.35;;;0.40;99.90;;;;;;5052228;28;20093;-77
2023/01/24 00:37:19;;;;;;;12.93;7.00;;;0.50;99.90;;;;;;5050570;28;20073;-76
2023/01/24 00:39:45;;;;;;;12.88;7.22;;;0.50;99.90;;;;;;5022373;28;20381;-77
2023/01/24 00:42:11;;;;;;;12.25;6.60;;;0.50;99.90;;;;;;5068622;28;20796;-76
2023/01/24 00:44:37;;;;;;;10.25;6.57;;;0.50;99.90;;;;;;5067570;28;20054;-78
2023/01/24 00:47:04;;;;;;;14.23;7.75;;;0.50;99.90;;;;;;5044699;28;20052;-76
2023/01/24 00:49:30;;;;;;;11.38;6.75;;;0.50;99.90;;;;;;5048557;28;20052;-76
2023/01/24 00:51:57;;;;;;;11.85;7.15;;;0.60;99.90;;;;;;5064218;28;20104;-77
2023/01/24 00:54:23;;;;;;;11.40;6.07;;;0.60;99.90;;;;;;5070958;28;20097;-78
2023/01/24 00:56:49;;;;;;;9.82;6.50;;;0.60;99.90;;;;;;5049586;28;20037;-78
2023/01/24 00:59:15;;;;;;;10.77;7.30;;;0.60;99.90;;;;;;5038259;28;20119;-77
2023/01/24 01:01:42;;;;;;;11.40;6.28;;;0.60;99.90;;;;;;5051832;28;20021;-77
2023/01/24 01:04:10;;;;;;;12.90;7.22;;;0.60;99.90;;;;;;5068503;28;20032;-77
2023/01/24 01:06:36;;;;;;;12.18;6.55;;;0.60;99.90;;;;;;5052444;28;20385;-78
2023/01/24 01:09:03;;;;;;;11.82;6.63;;;0.60;99.90;;;;;;5033428;28;20519;-77
2023/01/24 01:11:29;;;;;;;13.13;6.68;;;0.60;99.90;;;;;;5049605;28;20031;-78
2023/01/24 01:13:58;;;;;;;10.85;6.13;;;0.60;99.90;;;;;;5073482;28;20032;-77
2023/01/24 01:16:24;;;;;;;11.73;6.53;;;0.70;99.90;;;;;;5055610;28;20151;-77
2023/01/24 01:18:53;;;;;;;10.57;6.15;;;0.70;99.90;;;;;;5053770;28;20489;-77
2023/01/24 01:21:38;;;;;;;9.45;6.40;;;0.60;99.90;;;;;;5066244;28;20554;-77
2023/01/24 01:24:04;;;;;;;11.75;6.82;;;0.60;99.90;;;;;;5064999;28;20041;-77
2023/01/24 01:26:31;;;;;;;13.50;6.68;;;0.70;99.90;;;;;;5049614;28;20033;-77
2023/01/24 01:28:58;;;;;;;11.25;5.72;;;0.70;99.90;;;;;;5059252;28;20430;-77
2023/01/24 01:31:24;;;;;;;11.13;6.43;;;0.70;99.90;;;;;;5053278;28;20378;-77
2023/01/24 01:33:50;;;;;;;11.85;6.07;;;0.70;99.90;;;;;;5057019;28;20021;-77
2023/01/24 01:36:17;;;;;;;12.48;7.10;;;0.80;99.90;;;;;;5067641;28;20025;-78
2023/01/24 01:38:43;;;;;;;10.38;6.05;;;0.80;99.90;;;;;;5052587;28;20143;-78
2023/01/24 01:41:12;;;;;;;11.45;6.65;;;0.80;99.90;;;;;;5049769;28;20539;-76
2023/01/24 01:44:37;;;;;;;11.77;6.68;;;0.80;99.90;;;;;;5041536;28;20082;-77
2023/01/24 01:46:25;;;;;;;;;;;0.80;99.90;;;;;;5055083;28;20419;-77
2023/01/24 01:48:54;;;;;;;9.77;5.63;;;0.80;99.90;;;;;;5074930;28;19917;-77
2023/01/24 01:51:27;;;;;;;10.85;6.40;;;0.80;99.90;;;;;;5054759;28;20036;-77
2023/01/24 01:54:10;;;;;;;11.93;6.38;;;0.80;99.90;;;;;;5049961;28;20024;-77
2023/01/24 01:56:42;;;;;;;12.15;6.50;;;0.80;99.90;;;;;;5067655;28;20112;-77
2023/01/24 01:59:18;;;;;;;11.85;6.20;;;0.70;99.90;;;;;;5030718;28;20074;-77
2023/01/24 02:01:46;;;;;;;10.50;6.05;;;0.70;99.90;;;;;;5048534;28;20082;-76
2023/01/24 02:04:35;;;;;;;10.60;5.80;;;0.70;99.90;;;;;;5042472;28;20131;-77
2023/01/24 02:07:04;;;;;;;9.63;6.03;;;0.70;99.90;;;;;;5045255;28;20497;-78
2023/01/24 02:09:40;;;;;;;10.07;5.97;;;0.70;99.90;;;;;;5066715;28;20021;-77
2023/01/24 02:12:28;;;;;;;11.77;6.03;;;0.70;99.90;;;;;;5054324;28;20103;-77
2023/01/24 02:17:50;;;;;;;13.02;7.13;;;0.70;99.90;;;;;;5065111;28;20036;-77
2023/01/24 02:20:34;;;;;;;11.15;6.65;;;0.70;99.90;;;;;;5067762;28;20035;-77
2023/01/24 02:23:39;;;;;;;12.88;6.55;;;0.70;99.90;;;;;;5072430;28;20028;-77
2023/01/24 02:26:12;;;;;;;11.38;6.88;;;0.70;99.90;;;;;;5007940;28;20441;-78
2023/01/24 02:28:43;;;;;;;10.43;6.35;;;0.60;99.90;;;;;;5024590;28;20021;-75
2023/01/24 02:31:09;;;;;;;9.85;5.80;;;0.60;99.90;;;;;;5031501;28;20044;-76
2023/01/24 02:33:36;;;;;;;10.95;6.28;;;0.70;99.90;;;;;;5051088;28;20037;-78
2023/01/24 02:36:35;;;;;;;10.80;6.30;;;0.70;99.90;;;;;;5040390;28;20037;-76
2023/01/24 02:39:06;;;;;;;10.27;6.05;;;0.70;99.90;;;;;;5019765;28;20037;-75
2023/01/24 02:41:41;;;;;;;11.82;5.72;;;0.70;99.90;;;;;;5072039;28;20078;-77
2023/01/24 02:44:13;;;;;;;13.02;6.35;;;0.80;99.90;;;;;;5060782;28;20029;-77
2023/01/24 02:46:42;;;;;;;12.25;6.53;;;0.80;99.90;;;;;;5044234;28;20025;-75
2023/01/24 02:49:10;;;;;;;12.13;6.43;;;0.80;99.90;;;;;;5073675;28;20017;-77
2023/01/24 02:54:20;;;;;;;9.47;5.83;;;0.70;99.90;;;;;;5071321;28;20036;-77
2023/01/24 02:59:31;;;;;;;11.47;6.60;;;0.70;99.90;;;;;;5080757;28;20074;-77
2023/01/24 03:01:57;;;;;;;12.60;6.82;;;0.70;99.90;;;;;;5056696;28;20036;-77
2023/01/24 03:04:23;;;;;;;12.95;6.70;;;0.70;99.90;;;;;;5057015;28;20115;-76
2023/01/24 03:06:49;;;;;;;10.23;6.38;;;0.60;99.90;;;;;;5082691;28;20039;-77
2023/01/24 03:09:18;;;;;;;11.52;6.63;;;0.70;99.90;;;;;;5070162;28;20028;-77
2023/01/24 03:11:48;;;;;;;13.52;7.00;;;0.70;99.90;;;;;;5050271;28;20816;-77
2023/01/24 03:36:31;;;;;;;11.18;6.07;;;0.70;99.90;;;;;;5070078;28;20171;-77
2023/01/24 03:41:41;;;;;;;11.90;5.97;;;0.70;99.90;;;;;;5069398;28;20442;-76
2023/01/24 03:44:07;;;;;;;12.98;6.57;;;0.70;99.90;;;;;;5069983;28;20047;-77
2023/01/24 03:46:39;;;;;;;11.07;6.57;;;0.70;99.90;;;;;;5046377;28;20775;-76
2023/01/24 03:49:06;;;;;;;13.27;6.53;;;0.70;99.90;;;;;;5033211;28;20036;-76
2023/01/24 03:54:20;;;;;;;12.93;6.65;;;0.60;99.90;;;;;;5058894;28;20680;-77
2023/01/24 03:57:02;;;;;;;13.93;6.38;;;0.60;99.90;;;;;;5072591;28;20055;-76
2023/01/24 03:59:28;;;;;;;12.07;6.97;;;0.60;99.90;;;;;;5057360;28;20033;-76
2023/01/24 04:01:54;;;;;;;12.25;6.60;;;0.60;99.90;;;;;;5040564;28;20057;-77
2023/01/24 04:05:11;;;;;;;13.40;6.78;;;0.60;99.90;;;;;;5050195;28;20052;-76
2023/01/24 04:07:10;;;;;;;15.00;6.82;;;0.70;99.90;;;;;;5049559;28;20505;-76
2023/01/24 04:09:38;;;;;;;13.20;6.50;;;0.70;99.90;;;;;;5042031;28;20509;-76
2023/01/24 04:12:04;;;;;;;12.60;6.40;;;0.70;99.90;;;;;;5049705;28;20111;-76
2023/01/24 04:14:29;;;;;;;11.65;6.65;;;0.70;99.90;;;;;;5051962;28;20021;-75
2023/01/24 04:17:04;;;;;;;12.35;6.93;;;0.80;99.90;;;;;;5060867;28;20392;-77
2023/01/24 04:19:39;;;;;;;14.05;7.30;;;0.80;99.90;;;;;;5048258;28;20102;-76
2023/01/24 04:22:06;;;;;;;14.68;6.63;;;0.80;99.90;;;;;;5050925;28;20704;-76
2023/01/24 04:24:33;;;;;;;15.95;7.45;;;0.70;99.90;;;;;;5064241;28;20032;-76
2023/01/24 04:27:00;;;;;;;11.73;6.97;;;0.80;99.90;;;;;;5077354;28;20084;-77
2023/01/24 04:29:32;;;;;;;13.35;6.20;;;0.80;99.90;;;;;;5042506;28;20135;-77
2023/01/24 04:32:01;;;;;;;10.77;5.95;;;0.80;99.90;;;;;;5065252;28;20047;-77
2023/01/24 04:34:37;;;;;;;10.60;6.10;;;0.70;99.90;;;;;;5059492;28;20607;-77
2023/01/24 04:37:06;;;;;;;12.70;6.72;;;0.70;99.90;;;;;;5059952;28;20609;-77
2023/01/24 04:39:34;;;;;;;13.68;7.07;;;0.70;99.90;;;;;;5047120;28;20024;-77
2023/01/24 04:42:08;;;;;;;11.18;6.25;;;0.70;99.90;;;;;;5064151;28;20036;-77
2023/01/24 04:44:35;;;;;;;11.13;6.38;;;0.60;99.90;;;;;;5022056;28;20063;-77
2023/01/24 04:47:01;;;;;;;11.30;6.50;;;0.60;99.90;;;;;;5057593;28;20041;-77
2023/01/24 04:49:27;;;;;;;11.98;6.97;;;0.70;99.90;;;;;;5051141;28;20118;-76
2023/01/24 04:51:53;;;;;;;13.50;6.63;;;0.70;99.90;;;;;;5044202;28;20024;-77
2023/01/24 04:54:28;;;;;;;14.13;6.07;;;0.70;99.90;;;;;;5035698;28;20032;-77
2023/01/24 04:56:54;;;;;;;10.02;6.03;;;0.70;99.90;;;;;;5053991;28;20028;-77
2023/01/24 04:59:21;;;;;;;12.40;6.93;;;0.80;99.90;;;;;;5043949;28;20037;-76
2023/01/24 05:01:48;;;;;;;13.73;7.00;;;0.80;99.90;;;;;;5033355;28;20086;-78
2023/01/24 05:04:34;;;;;;;13.63;6.80;;;0.80;99.90;;;;;;5024195;28;20028;-78
2023/01/24 05:07:01;;;;;;;11.95;6.57;;;0.80;99.90;;;;;;5046001;28;20044;-78
2023/01/24 05:09:27;;;;;;;13.27;6.72;;;0.70;99.90;;;;;;5054363;28;20039;-77
2023/01/24 05:11:59;;;;;;;11.38;6.28;;;0.70;99.90;;;;;;5055044;28;20643;-77
2023/01/24 05:14:25;;;;;;;14.50;6.80;;;0.70;99.90;;;;;;5056067;28;20120;-78
2023/01/24 05:16:52;;;;;;;10.00;6.07;;;0.70;99.90;;;;;;5051551;28;20116;-77
2023/01/24 05:19:18;;;;;;;14.05;7.35;;;0.70;99.90;;;;;;5055195;28;20116;-77
2023/01/24 05:21:44;;;;;;;13.63;7.60;;;0.70;99.90;;;;;;5073034;28;20040;-77
2023/01/24 05:24:12;;;;;;;15.98;7.50;;;0.70;99.90;;;;;;5061657;28;20078;-78
2023/01/24 05:26:38;;;;;;;17.30;8.10;;;0.70;99.90;;;;;;5055279;28;20070;-78
2023/01/24 05:29:22;;;;;;;13.10;7.55;;;0.70;99.90;;;;;;5068187;28;20039;-77
2023/01/24 05:31:55;;;;;;;12.25;7.03;;;0.70;99.90;;;;;;5050074;28;20025;-76
2023/01/24 05:34:21;;;;;;;14.00;7.28;;;0.70;99.90;;;;;;5034187;28;20592;-77
2023/01/24 05:36:47;;;;;;;14.82;7.80;;;0.70;99.90;;;;;;5009439;28;20049;-76
2023/01/24 05:39:14;;;;;;;15.30;8.50;;;0.70;99.90;;;;;;5059269;28;20025;-76
2023/01/24 05:41:42;;;;;;;14.10;7.35;;;0.70;99.90;;;;;;5063815;28;20096;-76
2023/01/24 05:44:09;;;;;;;13.13;7.28;;;0.70;99.90;;;;;;5041038;28;20028;-76
2023/01/24 05:46:37;;;;;;;15.27;7.32;;;0.70;99.90;;;;;;5052239;28;20036;-77
2023/01/24 05:49:19;;;;;;;13.07;7.20;;;0.70;99.90;;;;;;5056743;28;20542;-76
2023/01/24 05:51:46;;;;;;;15.18;7.38;;;0.70;99.90;;;;;;5042840;28;20155;-77
2023/01/24 05:54:16;;;;;;;12.85;7.45;;;0.80;99.90;;;;;;5045388;28;20166;-76
2023/01/24 05:56:54;;;;;;;15.48;7.47;;;0.70;99.90;;;;;;5048483;28;20036;-76
2023/01/24 05:59:20;;;;;;;11.65;7.05;;;0.70;99.90;;;;;;5053837;28;20360;-77
2023/01/24 06:01:46;;;;;;;12.90;6.70;;;0.70;99.90;;;;;;5030447;28;20123;-78
2023/01/24 06:04:13;;;;;;;14.95;7.68;;;0.70;99.90;;;;;;5058387;28;20401;-75
2023/01/24 06:06:39;;;;;;;15.73;9.30;;;0.70;99.90;;;;;;5043894;28;20028;-79
2023/01/24 06:09:05;;;;;;;16.77;9.43;;;0.70;99.90;;;;;;5058374;28;20033;-77
2023/01/24 06:11:33;;;;;;;17.05;10.07;;;0.70;99.90;;;;;;5046017;28;20082;-77
2023/01/24 06:14:06;;;;;;;19.60;13.45;;;0.70;99.90;;;;;;5061310;28;20036;-77
2023/01/24 06:16:32;;;;;;;20.85;13.15;;;0.70;99.90;;;;;;5062942;28;20033;-78
2023/01/24 06:18:58;;;;;;;23.95;15.05;;;0.70;99.90;;;;;;5058862;28;20029;-77
2023/01/24 06:21:34;;;;;;;24.33;14.85;;;0.70;99.90;;;;;;5058625;28;20032;-77
2023/01/24 06:24:01;;;;;;;17.27;10.18;;;0.70;99.90;;;;;;5072159;28;20032;-77
2023/01/24 06:26:40;;;;;;;14.85;8.02;;;0.70;99.90;;;;;;5055584;28;20079;-77
2023/01/24 06:29:09;;;;;;;12.40;7.50;;;0.70;99.90;;;;;;5053384;28;20037;-77
2023/01/24 06:31:53;;;;;;;13.98;7.20;;;0.70;99.90;;;;;;5071115;28;20581;-76
2023/01/24 06:34:47;;;;;;;13.68;7.47;;;0.70;99.90;;;;;;5065648;28;20079;-77
2023/01/24 06:37:45;;;;;;;12.75;7.22;;;0.70;99.90;;;;;;5070470;28;20033;-78
2023/01/24 06:40:13;;;;;;;13.57;7.22;;;0.70;99.90;;;;;;5066582;28;20389;-77
2023/01/24 06:42:40;;;;;;;12.10;6.55;;;0.70;99.90;;;;;;5070313;28;20066;-77
2023/01/24 06:45:07;;;;;;;14.65;7.35;;;0.70;99.90;;;;;;5070803;28;20040;-77
2023/01/24 06:47:33;;;;;;;10.88;7.00;;;0.70;99.90;;;;;;5038050;28;20035;-77
2023/01/24 06:49:59;;;;;;;11.98;7.03;;;0.70;99.90;;;;;;5051390;28;20081;-77
2023/01/24 06:52:25;;;;;;;12.95;7.82;;;0.70;99.90;;;;;;5066871;28;20496;-77
2023/01/24 06:54:51;;;;;;;15.07;8.70;;;0.70;99.90;;;;;;5076589;28;20024;-77
2023/01/24 06:57:17;;;;;;;13.70;7.45;;;0.70;99.90;;;;;;5070237;28;20036;-77
2023/01/24 06:59:42;;;;;;;15.63;7.72;;;0.80;99.90;;;;;;5036765;28;20032;-77
2023/01/24 07:02:11;;;;;;;12.05;7.25;;;0.80;99.90;;;;;;5023889;28;20039;-77
2023/01/24 07:04:37;;;;;;;14.25;7.50;;;0.80;99.90;;;;;;5050671;28;20124;-77
2023/01/24 07:07:06;;;;;;;14.07;7.70;;;0.80;99.90;;;;;;5066428;28;20054;-77
2023/01/24 07:09:32;;;;;;;13.50;7.53;;;0.80;99.90;;;;;;5055249;28;20059;-77
2023/01/24 07:11:58;;;;;;;16.50;8.38;;;0.80;99.90;;;;;;5071591;28;20032;-77
2023/01/24 07:14:25;;;;;;;16.63;7.88;;;0.80;99.90;;;;;;5072264;28;20029;-77
2023/01/24 07:16:52;;;;;;;15.35;7.82;;;0.80;99.90;;;;;;5046138;28;20150;-77
2023/01/24 07:19:23;;;;;;;13.70;7.70;;;0.90;99.90;;;;;;5065732;28;20024;-77
2023/01/24 07:21:50;;;;;;;15.23;8.25;;;0.90;99.90;;;;;;5071343;28;20037;-77
2023/01/24 07:24:22;;;;;;;14.07;7.43;;;0.90;99.90;;;;;;5061921;28;20123;-77
2023/01/24 07:26:50;;;;;;;16.05;8.63;;;0.90;99.90;;;;;;5071477;28;20044;-77
2023/01/24 07:29:18;;;;;;;14.68;6.97;;;0.90;99.90;;;;;;5022564;28;20036;-77
2023/01/24 07:31:44;;;;;;;15.40;8.32;;;0.90;99.90;;;;;;5049971;28;20104;-77
2023/01/24 07:34:10;;;;;;;14.63;7.68;;;0.90;99.90;;;;;;5066496;28;20119;-77
2023/01/24 07:36:36;;;;;;;13.57;8.02;;;0.90;99.90;;;;;;5073892;28;20056;-77
2023/01/24 07:39:02;;;;;;;16.98;8.52;;;0.90;99.90;;;;;;5044651;28;20039;-77
2023/01/24 07:41:28;;;;;;;14.93;7.88;;;0.90;99.90;;;;;;5074713;28;20032;-77
2023/01/24 07:43:54;;;;;;;20.63;8.73;;;0.90;99.90;;;;;;5072285;28;20032;-77
2023/01/24 07:46:21;;;;;;;14.27;8.13;;;0.90;99.90;;;;;;5049500;28;20098;-76
2023/01/24 07:48:47;;;;;;;15.60;8.55;;;0.90;99.90;;;;;;5051200;28;20032;-76
2023/01/24 07:51:12;;;;;;;14.50;7.93;;;1.00;99.90;;;;;;5065060;28;20051;-77
2023/01/24 07:53:38;;;;;;;14.60;8.25;;;0.90;99.90;;;;;;5047333;28;20123;-76
2023/01/24 07:56:05;;;;;;;15.60;8.65;;;0.90;99.90;;;;;;5037590;28;20045;-77
2023/01/24 07:58:31;;;;;;;15.88;8.38;;;0.90;99.90;;;;;;5069367;28;20064;-77
2023/01/24 08:00:57;;;;;;;15.95;8.32;;;1.00;99.90;;;;;;5040494;28;20452;-77
2023/01/24 08:03:23;;;;;;;17.25;9.05;;;1.00;99.90;;;;;;5057884;28;20039;-76
2023/01/24 08:05:49;;;;;;;16.35;8.88;;;0.90;99.90;;;;;;5054218;28;20070;-77
2023/01/24 08:08:15;;;;;;;17.73;9.43;;;0.90;99.90;;;;;;5063410;28;20036;-76
2023/01/24 08:10:41;;;;;;;21.50;9.57;;;0.90;99.90;;;;;;5037145;28;20079;-76
2023/01/24 08:13:07;;;;;;;17.05;9.65;;;0.90;99.90;;;;;;5034070;28;20653;-76
2023/01/24 08:15:33;;;;;;;17.42;8.75;;;0.90;99.90;;;;;;5050993;28;20051;-76
2023/01/24 08:18:01;;;;;;;19.85;9.40;;;0.90;99.90;;;;;;5070029;28;20703;-76
2023/01/24 08:20:29;;;;;;;20.15;10.07;;;1.00;99.90;;;;;;5069843;28;20078;-76
2023/01/24 08:22:57;;;;;;;16.52;9.00;;;1.00;99.90;;;;;;5069795;28;20046;-78
2023/01/24 08:25:28;;;;;;;17.70;9.55;;;1.00;99.90;;;;;;5033571;28;20071;-76
2023/01/24 08:27:54;;;;;;;17.13;8.77;;;1.00;99.90;;;;;;5074902;28;20056;-76
2023/01/24 08:30:20;;;;;;;18.05;9.50;;;1.00;99.90;;;;;;5037909;28;20074;-77
2023/01/24 08:32:46;;;;;;;19.15;9.10;;;1.00;99.90;;;;;;5029812;28;20421;-77
2023/01/24 08:35:11;;;;;;;18.50;8.63;;;1.00;99.90;;;;;;5074037;28;20127;-77
2023/01/24 08:37:37;;;;;;;18.35;9.20;;;1.00;99.90;;;;;;5062986;28;20032;-77
2023/01/24 08:40:04;;;;;;;18.42;8.75;;;1.00;99.90;;;;;;5050127;28;20037;-76
2023/01/24 08:42:30;;;;;;;15.88;8.52;;;0.90;99.90;;;;;;5063283;28;20028;-77
2023/01/24 08:44:56;;;;;;;19.98;9.13;;;1.00;99.90;;;;;;5045878;28;20392;-77
2023/01/24 08:47:29;;;;;;;18.80;9.68;;;1.00;99.90;;;;;;5120531;27;20379;-76
2023/01/24 08:49:55;;;;;;;18.65;9.00;;;1.00;99.90;;;;;;5094791;28;20023;-76
2023/01/24 08:52:21;;;;;;;17.83;8.90;;;1.00;99.90;;;;;;5089960;28;20105;-75
2023/01/24 08:54:47;;;;;;;17.95;8.98;;;1.00;99.90;;;;;;5103506;28;20028;-73
2023/01/24 08:57:13;;;;;;;19.05;8.88;;;1.00;99.90;;;;;;5112405;27;20513;-76
2023/01/24 08:59:39;;;;;;;13.57;8.30;;;1.00;99.90;;;;;;5104531;28;20027;-76
2023/01/24 09:02:05;;;;;;;19.55;9.35;;;1.00;99.90;;;;;;5103742;28;20070;-75
2023/01/24 09:04:31;;;;;;;18.33;9.38;;;1.00;99.90;;;;;;5092015;28;20066;-76
2023/01/24 09:06:58;;;;;;;15.80;8.27;;;1.00;99.90;;;;;;5111647;28;20027;-74
2023/01/24 09:09:25;;;;;;;20.00;8.93;;;1.10;99.90;;;;;;5084567;28;20052;-75
2023/01/24 09:11:52;;;;;;;16.13;8.40;;;1.10;99.90;;;;;;5098383;28;20023;-76
2023/01/24 09:14:17;;;;;;;16.90;9.13;;;1.00;99.90;;;;;;5101850;28;20184;-76
2023/01/24 09:16:43;;;;;;;17.52;9.13;;;1.10;99.90;;;;;;5099358;28;20061;-78
2023/01/24 09:19:11;;;;;;;17.35;8.60;;;1.10;99.90;;;;;;5095275;28;20770;-76
2023/01/24 09:21:37;;;;;;;19.60;9.10;;;1.10;99.90;;;;;;5100860;28;20570;-77
2023/01/24 09:24:04;;;;;;;16.33;8.85;;;1.10;99.90;;;;;;5095379;28;20063;-76
2023/01/24 09:26:30;;;;;;;15.20;7.82;;;1.10;99.90;;;;;;5097656;28;20525;-76
2023/01/24 09:28:56;;;;;;;14.57;8.32;;;1.20;99.90;;;;;;5100048;28;20032;-76
2023/01/24 09:31:22;;;;;;;15.50;8.48;;;1.20;99.90;;;;;;5107600;27;20031;-76
2023/01/24 09:33:48;;;;;;;18.63;9.32;;;1.10;99.90;;;;;;5101978;28;20025;-76
2023/01/24 09:36:14;;;;;;;15.25;8.13;;;1.20;99.90;;;;;;5107955;28;20029;-76
2023/01/24 09:38:40;;;;;;;15.63;8.63;;;1.20;99.90;;;;;;5114309;28;20043;-77
2023/01/24 09:41:06;;;;;;;15.38;7.97;;;1.20;99.90;;;;;;5104778;27;20052;-77
2023/01/24 09:43:38;;;;;;;15.90;8.55;;;1.20;99.90;;;;;;5117896;28;20058;-77
2023/01/24 09:46:15;;;;;;;16.60;8.73;;;1.20;99.90;;;;;;5100689;28;20024;-77
2023/01/24 09:48:42;;;;;;;15.30;8.13;;;1.20;99.90;;;;;;5098078;28;20124;-77
2023/01/24 09:51:19;;;;;;;15.82;9.07;;;1.20;99.90;;;;;;5100908;28;20077;-77
2023/01/24 09:53:51;;;;;;;16.75;7.95;;;1.20;99.90;;;;;;5098375;28;20031;-77
2023/01/24 09:56:30;;;;;;;15.35;8.93;;;1.20;99.90;;;;;;5101071;28;20050;-76
2023/01/24 09:59:14;;;;;;;16.45;8.23;;;1.20;99.90;;;;;;5077167;28;20024;-76
2023/01/24 10:01:40;;;;;;;16.35;8.90;;;1.20;99.90;;;;;;5096976;28;20110;-75
2023/01/24 10:04:19;;;;;;;16.38;8.98;;;1.30;99.90;;;;;;5089856;28;20450;-76
2023/01/24 10:07:12;;;;;;;15.90;8.85;;;1.30;99.90;;;;;;5083224;28;20130;-75
2023/01/24 10:10:05;;;;;;;15.50;8.40;;;1.30;99.90;;;;;;5078686;28;20049;-76
2023/01/24 10:12:58;;;;;;;15.45;8.27;;;1.30;99.90;;;;;;5077644;28;20028;-76
2023/01/24 10:16:12;;;;;;;19.15;8.63;;;1.30;99.90;;;;;;5095124;28;20027;-76
2023/01/24 10:18:53;;;;;;;15.15;8.13;;;1.30;99.90;;;;;;5071344;28;20043;-76
2023/01/24 10:21:26;;;;;;;15.75;8.82;;;1.30;99.90;;;;;;5084807;28;20028;-77
2023/01/24 10:23:56;;;;;;;15.90;8.05;;;1.30;99.90;;;;;;5081935;28;20085;-76
2023/01/24 10:26:25;;;;;;;14.85;7.95;;;1.30;99.90;;;;;;5082619;28;20067;-78
2023/01/24 10:28:54;;;;;;;16.48;8.10;;;1.30;99.90;;;;;;5086590;28;20036;-77
2023/01/24 10:31:34;;;;;;;15.00;8.38;;;1.30;99.90;;;;;;5080515;28;20031;-77
2023/01/24 10:34:18;;;;;;;13.55;7.47;;;1.40;99.90;;;;;;5076027;28;20049;-77
2023/01/24 10:37:08;;;;;;;13.48;7.55;;;1.40;99.90;;;;;;5075673;28;20036;-76
2023/01/24 10:39:34;;;;;;;17.15;8.20;;;1.40;99.90;;;;;;5066354;28;20024;-77
2023/01/24 10:42:00;;;;;;;17.23;8.70;;;1.40;99.90;;;;;;5060430;28;20459;-77
2023/01/24 10:44:34;;;;;;;16.88;9.60;;;1.40;99.90;;;;;;5067132;28;20033;-75
2023/01/24 10:46:59;;;;;;;15.20;7.50;;;1.40;99.90;;;;;;5076353;28;20111;-76
2023/01/24 10:49:52;;;;;;;15.50;8.18;;;1.40;99.90;;;;;;5064172;28;20113;-75
2023/01/24 10:52:20;;;;;;;14.60;8.00;;;1.40;99.90;;;;;;5076198;28;20040;-76
2023/01/24 10:54:57;;;;;;;13.60;7.38;;;1.40;99.90;;;;;;5080004;28;20042;-76
2023/01/24 10:57:41;;;;;;;18.17;7.65;;;1.50;99.90;;;;;;5080078;28;20186;-76
2023/01/24 11:00:19;;;;;;;15.05;8.40;;;1.50;99.90;;;;;;5082980;28;20219;-76
2023/01/24 11:02:50;;;;;;;15.95;7.85;;;1.60;99.90;;;;;;5071546;28;20381;-77
2023/01/24 11:05:18;;;;;;;15.93;8.63;;;1.50;99.90;;;;;;5072065;28;20154;-77
2023/01/24 11:07:48;;;;;;;15.90;8.13;;;1.50;99.90;;;;;;5065854;28;20310;-76
2023/01/24 11:10:21;;;;;;;14.50;8.23;;;1.60;99.90;;;;;;5071785;28;20028;-76
2023/01/24 11:12:49;;;;;;;22.00;9.98;;;1.60;99.90;;;;;;5067329;28;20043;-78
2023/01/24 11:15:33;;;;;;;14.68;7.68;;;1.60;99.90;;;;;;5080673;28;20021;-75
2023/01/24 11:18:13;;;;;;;13.50;7.63;;;1.60;99.90;;;;;;5073895;28;20479;-75
2023/01/24 11:20:42;;;;;;;16.83;10.18;;;1.60;99.90;;;;;;5078235;28;20034;-76
2023/01/24 11:23:20;;;;;;;21.67;11.32;;;1.60;99.90;;;;;;5083429;28;20025;-76
2023/01/24 11:26:03;;;;;;;16.20;8.02;;;1.60;99.90;;;;;;5081450;28;20027;-76
2023/01/24 11:28:34;;;;;;;14.55;8.50;;;1.60;99.90;;;;;;5091881;28;20060;-75
2023/01/24 11:31:05;;;;;;;15.80;8.30;;;1.70;99.90;;;;;;5071398;28;20036;-77
2023/01/24 11:33:57;;;;;;;15.15;8.35;;;1.70;99.90;;;;;;5070942;28;20743;-77
2023/01/24 11:36:50;;;;;;;15.05;8.30;;;1.70;99.90;;;;;;5080921;28;20046;-77
2023/01/24 11:39:21;;;;;;;14.93;8.00;;;1.70;99.90;;;;;;5084320;28;20506;-77
2023/01/24 11:41:58;;;;;;;15.35;8.43;;;1.70;99.90;;;;;;5086686;28;20050;-76
2023/01/24 11:44:34;;;;;;;15.57;7.60;;;1.70;99.90;;;;;;5083711;28;20024;-76
2023/01/24 11:47:14;;;;;;;17.88;8.38;;;1.70;99.90;;;;;;5087849;28;20027;-76
2023/01/24 11:49:52;;;;;;;16.35;8.32;;;1.70;99.90;;;;;;5086723;28;20468;-76
2023/01/24 11:52:45;;;;;;;16.10;7.55;;;1.80;99.90;;;;;;5080305;28;20024;-77
2023/01/24 11:55:14;;;;;;;13.43;7.88;;;1.80;99.90;;;;;;5079705;28;20116;-77
2023/01/24 11:57:58;;;;;;;15.52;8.43;;;1.80;99.90;;;;;;5086519;28;20020;-77
2023/01/24 12:00:32;;;;;;;13.10;7.10;;;1.80;99.90;;;;;;5085070;28;20028;-78
2023/01/24 12:03:23;;;;;;;16.55;7.90;;;1.70;99.90;;;;;;5084057;28;20032;-77
2023/01/24 12:06:11;;;;;;;13.00;7.13;;;1.70;99.90;;;;;;5083749;28;20048;-78
2023/01/24 12:08:54;;;;;;;13.57;7.38;;;1.70;99.90;;;;;;5082210;28;20012;-76
2023/01/24 12:11:47;;;;;;;14.05;8.23;;;1.80;99.90;;;;;;5083126;28;20054;-76
2023/01/24 12:14:20;;;;;;;12.25;7.03;;;1.70;99.90;;;;;;5082839;28;20107;-77
2023/01/24 12:17:11;;;;;;;14.68;8.13;;;1.70;99.90;;;;;;5079235;28;20020;-77
2023/01/24 12:19:46;;;;;;;14.43;7.82;;;1.70;99.90;;;;;;5092672;28;20383;-76
2023/01/24 12:22:17;;;;;;;15.05;8.45;;;1.70;99.90;;;;;;5077388;28;20412;-76
2023/01/24 12:25:02;;;;;;;15.10;7.90;;;1.70;99.90;;;;;;5093220;28;20620;-77
2023/01/24 12:27:33;;;;;;;15.07;8.20;;;1.70;99.90;;;;;;5091110;28;20032;-77
2023/01/24 12:30:05;;;;;;;14.48;7.68;;;1.70;99.90;;;;;;5094995;28;20107;-77
2023/01/24 12:32:52;;;;;;;14.60;7.70;;;1.70;99.90;;;;;;5085428;28;20043;-76
2023/01/24 12:35:49;;;;;;;15.07;7.97;;;1.70;99.90;;;;;;5101403;28;20107;-77
2023/01/24 12:38:24;;;;;;;13.32;7.28;;;1.70;99.90;;;;;;5067397;28;20068;-77
2023/01/24 12:40:57;;;;;;;;;;;1.70;99.90;;;;;;5100668;28;20551;-77
2023/01/24 12:43:42;;;;;;;16.08;8.05;;;1.70;99.90;;;;;;5082146;28;20352;-76
2023/01/24 12:46:16;;;;;;;;;;;1.70;99.90;;;;;;5089073;28;20043;-77
2023/01/24 12:48:47;;;;;;;17.40;8.20;;;1.70;99.90;;;;;;5092408;28;20311;-77
2023/01/24 12:51:30;;;;;;;14.23;7.07;;;1.70;99.90;;;;;;5077870;28;20489;-77
2023/01/24 12:54:19;;;;;;;16.75;7.97;;;1.70;99.90;;;;;;5093129;28;20043;-76
2023/01/24 12:57:11;;;;;;;14.60;7.88;;;1.70;99.90;;;;;;5094312;28;20036;-76
2023/01/24 12:59:37;;;;;;;15.02;7.80;;;1.70;99.90;;;;;;5100735;28;20032;-77
2023/01/24 13:02:35;;;;;;;15.82;7.78;;;1.70;99.90;;;;;;5080532;28;20400;-76
2023/01/24 13:05:10;;;;;;;16.20;8.25;;;1.70;99.90;;;;;;5081734;28;20496;-76
2023/01/24 13:07:47;;;;;;;17.95;8.40;;;1.70;99.90;;;;;;5087723;28;20051;-76
2023/01/24 13:10:44;;;;;;;15.30;8.95;;;1.70;99.90;;;;;;5089202;28;20082;-76
2023/01/24 13:13:20;;;;;;;14.73;8.07;;;1.70;99.90;;;;;;5059561;28;20073;-77
2023/01/24 13:15:55;;;;;;;13.32;7.60;;;1.70;99.90;;;;;;5080537;28;20027;-76
2023/01/24 13:18:34;;;;;;;15.32;7.80;;;1.70;99.90;;;;;;5093073;28;20613;-77
2023/01/24 13:21:09;;;;;;;16.25;8.32;;;1.70;99.90;;;;;;5071945;28;20029;-77
2023/01/24 13:23:40;;;;;;;;;;;1.70;99.90;;;;;;5074844;28;20029;-76
2023/01/24 13:26:21;;;;;;;16.63;8.07;;;1.70;99.90;;;;;;5094076;28;20380;-77
2023/01/24 13:29:14;;;;;;;14.82;8.13;;;1.60;99.90;;;;;;5069593;28;20028;-77
2023/01/24 13:31:56;;;;;;;15.80;8.00;;;1.60;99.90;;;;;;5078280;28;20489;-77
2023/01/24 13:34:31;;;;;;;17.50;9.02;;;1.60;99.90;;;;;;5086725;28;20036;-77
2023/01/24 13:36:59;;;;;;;16.42;8.60;;;1.60;99.90;;;;;;5077228;28;20384;-77
2023/01/24 13:39:29;;;;;;;17.40;9.35;;;1.60;99.90;;;;;;5097302;28;20023;-77
2023/01/24 13:42:20;;;;;;;23.38;10.77;;;1.60;99.90;;;;;;5086678;28;20496;-76
2023/01/24 13:44:46;;;;;;;20.08;9.07;;;1.60;99.90;;;;;;5069185;28;20029;-76
2023/01/24 13:47:15;;;;;;;16.42;8.20;;;1.70;99.90;;;;;;5090419;28;20529;-77